createdAt,value
2022-11-17T00:00:45.046Z,18.98
2022-11-17T00:03:15.686Z,19.88
2022-11-17T00:05:43.309Z,20.58
2022-11-17T00:08:09.867Z,23.75
2022-11-17T00:10:36.428Z,19.30
2022-11-17T00:13:21.259Z,19.15
2022-11-17T00:15:47.817Z,21.20
2022-11-17T00:18:36.424Z,21.90
2022-11-17T00:21:21.582Z,21.60
2022-11-17T00:23:48.554Z,20.55
2022-11-17T00:26:29.463Z,21.00
2022-11-17T00:28:58.930Z,19.20
2022-11-17T00:31:46.158Z,18.38
2022-11-17T00:34:18.855Z,19.42
2022-11-17T00:36:47.903Z,21.85
2022-11-17T00:39:20.108Z,18.40
2022-11-17T00:41:46.908Z,17.50
2022-11-17T00:44:14.386Z,19.40
2022-11-17T00:46:43.769Z,15.88
2022-11-17T00:49:11.487Z,15.48
2022-11-17T00:51:41.612Z,18.10
2022-11-17T00:54:11.188Z,17.55
2022-11-17T00:56:37.755Z,15.02
2022-11-17T00:59:04.413Z,14.23
2022-11-17T01:01:31.235Z,13.25
2022-11-17T01:04:04.788Z,11.13
2022-11-17T01:06:35.904Z,12.52
2022-11-17T01:09:05.526Z,13.63
2022-11-17T01:11:32.423Z,14.27
2022-11-17T01:14:00.489Z,13.60
2022-11-17T01:16:28.372Z,11.32
2022-11-17T01:18:54.995Z,12.77
2022-11-17T01:21:26.680Z,14.30
2022-11-17T01:23:57.556Z,13.45
2022-11-17T01:26:27.781Z,15.65
2022-11-17T01:28:54.751Z,15.15
2022-11-17T01:31:24.542Z,16.35
2022-11-17T01:33:51.646Z,14.27
2022-11-17T01:36:24.402Z,19.10
2022-11-17T01:38:50.987Z,16.60
2022-11-17T01:41:22.654Z,17.23
2022-11-17T01:43:57.853Z,14.95
2022-11-17T01:46:41.220Z,14.65
2022-11-17T01:49:24.598Z,15.40
2022-11-17T01:51:57.602Z,14.65
2022-11-17T01:54:27.273Z,14.48
2022-11-17T01:56:59.609Z,13.02
2022-11-17T01:59:33.780Z,16.40
2022-11-17T02:02:00.493Z,19.00
2022-11-17T02:04:33.085Z,19.35
2022-11-17T02:07:15.595Z,18.67
2022-11-17T02:09:49.225Z,20.00
2022-11-17T02:12:21.095Z,16.70
2022-11-17T02:14:52.260Z,15.95
2022-11-17T02:17:21.528Z,15.57
2022-11-17T02:20:01.503Z,18.23
2022-11-17T02:22:49.473Z,24.13
2022-11-17T02:25:27.909Z,19.27
2022-11-17T02:27:54.319Z,18.15
2022-11-17T02:30:23.119Z,16.10
2022-11-17T02:33:11.344Z,14.25
2022-11-17T02:35:47.635Z,18.00
2022-11-17T02:38:41.510Z,21.23
2022-11-17T02:41:23.015Z,20.75
2022-11-17T02:44:23.898Z,16.73
2022-11-17T02:47:08.244Z,15.65
2022-11-17T02:49:38.983Z,15.02
2022-11-17T02:52:06.542Z,18.38
2022-11-17T02:54:33.713Z,16.88
2022-11-17T02:57:00.601Z,19.23
2022-11-17T02:59:33.991Z,17.38
2022-11-17T03:02:03.627Z,23.92
2022-11-17T03:04:52.806Z,18.38
2022-11-17T03:07:43.929Z,18.05
2022-11-17T03:10:29.006Z,18.67
2022-11-17T03:13:05.835Z,15.43
2022-11-17T03:15:50.759Z,12.82
2022-11-17T03:18:30.377Z,18.10
2022-11-17T03:21:05.849Z,17.83
2022-11-17T03:23:43.483Z,18.77
2022-11-17T03:26:13.544Z,18.17
2022-11-17T03:28:42.752Z,15.82
2022-11-17T03:31:16.004Z,17.73
2022-11-17T03:33:47.738Z,16.10
2022-11-17T03:36:18.708Z,14.68
2022-11-17T03:38:58.169Z,15.35
2022-11-17T03:41:28.696Z,13.25
2022-11-17T03:43:58.292Z,12.13
2022-11-17T03:46:28.659Z,13.75
2022-11-17T03:49:02.854Z,11.68
2022-11-17T03:51:33.238Z,11.90
2022-11-17T03:54:00.888Z,12.32
2022-11-17T03:56:46.031Z,12.65
2022-11-17T03:59:22.254Z,13.48
2022-11-17T04:01:48.790Z,11.85
2022-11-17T04:04:16.683Z,11.13
2022-11-17T04:06:43.300Z,11.85
2022-11-17T04:09:09.977Z,11.30
2022-11-17T04:11:55.111Z,9.43
2022-11-17T04:14:39.742Z,9.75
2022-11-17T04:17:06.313Z,8.57
2022-11-17T04:19:32.789Z,8.80
2022-11-17T04:21:59.340Z,8.18
2022-11-17T04:24:25.806Z,8.23
2022-11-17T04:27:10.452Z,7.20
2022-11-17T04:29:36.969Z,8.05
2022-11-17T04:32:03.545Z,8.55
2022-11-17T04:34:30.036Z,6.75
2022-11-17T04:37:01.642Z,9.65
2022-11-17T04:39:30.541Z,8.57
2022-11-17T04:42:01.880Z,8.70
2022-11-17T04:44:32.457Z,8.07
2022-11-17T04:46:59.450Z,10.35
2022-11-17T04:49:26.149Z,11.18
2022-11-17T04:51:53.750Z,9.77
2022-11-17T04:54:24.534Z,12.00
2022-11-17T04:56:55.098Z,12.50
2022-11-17T04:59:24.649Z,15.30
2022-11-17T05:01:51.525Z,12.85
2022-11-17T05:04:40.327Z,12.40
2022-11-17T05:07:08.357Z,11.40
2022-11-17T05:09:34.912Z,10.70
2022-11-17T05:12:20.057Z,11.98
2022-11-17T05:14:49.138Z,12.35
2022-11-17T05:17:16.151Z,12.05
2022-11-17T05:19:45.310Z,11.73
2022-11-17T05:22:32.833Z,10.88
2022-11-17T05:24:59.588Z,11.13
2022-11-17T05:27:26.796Z,10.00
2022-11-17T05:29:53.789Z,9.90
2022-11-17T05:32:21.475Z,9.40
2022-11-17T05:34:48.070Z,10.98
2022-11-17T05:37:18.286Z,9.43
2022-11-17T05:39:44.738Z,11.13
2022-11-17T05:42:11.388Z,10.20
2022-11-17T05:44:37.884Z,11.30
2022-11-17T05:47:04.421Z,16.98
2022-11-17T05:49:30.891Z,14.57
2022-11-17T05:51:57.374Z,15.70
2022-11-17T05:54:23.821Z,17.33
2022-11-17T05:57:04.516Z,15.93
2022-11-17T05:59:49.627Z,15.38
2022-11-17T06:02:23.983Z,14.32
2022-11-17T06:04:51.756Z,14.98
2022-11-17T06:07:19.497Z,12.57
2022-11-17T06:09:46.593Z,13.05
2022-11-17T06:12:15.146Z,12.00
2022-11-17T06:14:41.713Z,11.32
2022-11-17T06:17:21.919Z,12.55
2022-11-17T06:19:55.655Z,14.13
2022-11-17T06:22:22.688Z,12.40
2022-11-17T06:24:49.204Z,13.85
2022-11-17T06:27:17.192Z,18.67
2022-11-17T06:29:45.250Z,14.18
2022-11-17T06:32:17.070Z,20.13
2022-11-17T06:34:49.062Z,15.25
2022-11-17T06:37:17.264Z,14.35
2022-11-17T06:39:43.725Z,18.52
2022-11-17T06:42:10.195Z,18.15
2022-11-17T06:44:36.831Z,16.42
2022-11-17T06:47:03.517Z,16.38
2022-11-17T06:49:30.034Z,15.80
2022-11-17T06:51:56.519Z,13.80
2022-11-17T06:54:25.960Z,16.58
2022-11-17T06:56:55.993Z,15.73
2022-11-17T06:59:22.555Z,17.77
2022-11-17T07:01:49.034Z,12.80
2022-11-17T07:04:19.106Z,16.85
2022-11-17T07:06:45.604Z,14.15
2022-11-17T07:09:12.071Z,17.00
2022-11-17T07:11:38.536Z,15.15
2022-11-17T07:14:05.028Z,16.10
2022-11-17T07:16:32.490Z,14.48
2022-11-17T07:18:59.518Z,15.15
2022-11-17T07:21:26.201Z,21.63
2022-11-17T07:23:52.762Z,19.67
2022-11-17T07:26:19.571Z,15.85
2022-11-17T07:28:46.058Z,17.20
2022-11-17T07:31:12.563Z,15.45
2022-11-17T07:33:39.056Z,14.45
2022-11-17T07:36:11.632Z,13.95
2022-11-17T07:38:39.847Z,17.65
2022-11-17T07:41:07.979Z,17.63
2022-11-17T07:43:35.028Z,17.70
2022-11-17T07:46:10.739Z,13.35
2022-11-17T07:48:37.602Z,16.33
2022-11-17T07:51:05.419Z,16.05
2022-11-17T07:53:34.475Z,13.10
2022-11-17T07:56:09.724Z,16.02
2022-11-17T07:58:37.837Z,14.85
2022-11-17T08:01:06.091Z,11.60
2022-11-17T08:03:32.794Z,14.07
2022-11-17T08:06:06.993Z,12.40
2022-11-17T08:08:34.505Z,13.55
2022-11-17T08:11:09.983Z,14.70
2022-11-17T08:13:37.985Z,13.05
2022-11-17T08:16:04.799Z,12.68
2022-11-17T08:18:31.465Z,16.95
2022-11-17T08:21:05.438Z,16.08
2022-11-17T08:23:32.756Z,15.90
2022-11-17T08:25:59.890Z,13.65
2022-11-17T08:28:27.616Z,16.75
2022-11-17T08:30:54.311Z,13.77
2022-11-17T08:33:20.779Z,12.63
2022-11-17T08:35:47.368Z,12.20
2022-11-17T08:38:15.459Z,8.93
2022-11-17T08:40:42.608Z,11.98
2022-11-17T08:43:09.111Z,12.52
2022-11-17T08:45:35.615Z,10.15
2022-11-17T08:48:02.070Z,8.68
2022-11-17T08:50:28.588Z,8.88
2022-11-17T08:52:55.137Z,10.63
2022-11-17T08:55:21.688Z,8.60
2022-11-17T08:57:48.298Z,11.40
2022-11-17T09:00:16.341Z,9.52
2022-11-17T09:02:42.835Z,8.98
2022-11-17T09:05:09.514Z,8.10
2022-11-17T09:07:36.099Z,11.77
2022-11-17T09:10:05.366Z,8.75
2022-11-17T09:12:32.421Z,7.80
2022-11-17T09:14:58.957Z,9.02
2022-11-17T09:17:25.458Z,7.85
2022-11-17T09:19:51.972Z,7.47
2022-11-17T09:22:19.823Z,12.10
2022-11-17T09:24:46.281Z,8.05
2022-11-17T09:27:13.432Z,8.82
2022-11-17T09:29:43.187Z,8.02
2022-11-17T09:32:09.724Z,7.43
2022-11-17T09:34:36.311Z,5.70
2022-11-17T09:37:02.862Z,7.15
2022-11-17T09:39:32.801Z,6.10
2022-11-17T09:41:59.354Z,6.45
2022-11-17T09:44:51.418Z,6.32
2022-11-17T09:47:38.508Z,5.65
2022-11-17T09:50:20.118Z,5.53
2022-11-17T09:53:20.477Z,6.60
2022-11-17T09:55:51.171Z,6.97
2022-11-17T09:58:55.259Z,6.90
2022-11-17T10:01:22.499Z,10.35
2022-11-17T10:03:53.572Z,8.07
2022-11-17T10:06:22.617Z,6.07
2022-11-17T10:09:03.392Z,6.30
2022-11-17T10:11:33.251Z,4.50
2022-11-17T10:14:08.304Z,6.03
2022-11-17T10:16:36.229Z,5.00
2022-11-17T10:19:17.880Z,6.35
2022-11-17T10:21:51.772Z,5.78
2022-11-17T10:24:43.702Z,7.07
2022-11-17T10:27:32.308Z,5.93
2022-11-17T10:30:04.581Z,6.55
2022-11-17T10:32:35.046Z,5.75
2022-11-17T10:35:14.987Z,6.03
2022-11-17T10:37:51.329Z,6.15
2022-11-17T10:40:25.991Z,7.90
2022-11-17T10:43:00.525Z,6.68
2022-11-17T10:45:27.992Z,7.45
2022-11-17T10:48:09.542Z,6.47
2022-11-17T10:50:36.396Z,9.20
2022-11-17T10:53:46.313Z,7.78
2022-11-17T10:56:17.731Z,7.57
2022-11-17T10:58:57.001Z,9.88
2022-11-17T11:01:39.051Z,8.35
2022-11-17T11:06:35.398Z,7.28
2022-11-17T11:09:32.336Z,7.28
2022-11-17T11:12:02.086Z,6.18
2022-11-17T11:14:39.087Z,7.47
2022-11-17T11:17:13.606Z,6.82
2022-11-17T11:19:42.079Z,6.45
2022-11-17T11:22:30.406Z,6.03
2022-11-17T11:25:02.936Z,6.32
2022-11-17T11:27:35.694Z,5.85
2022-11-17T11:30:02.097Z,6.43
2022-11-17T11:32:50.046Z,6.95
2022-11-17T11:35:38.033Z,8.57
2022-11-17T11:38:41.279Z,6.95
2022-11-17T11:41:32.221Z,6.72
2022-11-17T11:44:20.869Z,7.35
2022-11-17T11:47:08.942Z,6.63
2022-11-17T11:49:49.451Z,8.60
2022-11-17T11:52:21.917Z,8.63
2022-11-17T11:55:07.263Z,8.90
2022-11-17T11:57:39.231Z,9.82
2022-11-17T12:02:51.310Z,9.02
2022-11-17T12:05:24.109Z,10.73
2022-11-17T12:08:13.288Z,7.60
2022-11-17T12:10:50.782Z,7.47
2022-11-17T12:13:20.944Z,7.43
2022-11-17T12:15:47.995Z,7.53
2022-11-17T12:18:17.580Z,6.82
2022-11-17T12:21:01.138Z,7.32
2022-11-17T12:23:38.032Z,7.50
2022-11-17T12:26:05.271Z,12.02
2022-11-17T12:28:40.554Z,9.60
2022-11-17T12:31:11.283Z,6.65
2022-11-17T12:33:52.845Z,7.32
2022-11-17T12:36:30.633Z,6.20
2022-11-17T12:39:03.589Z,6.45
2022-11-17T12:41:54.792Z,6.70
2022-11-17T12:44:48.501Z,7.70
2022-11-17T12:47:27.125Z,8.45
2022-11-17T12:50:02.868Z,10.40
2022-11-17T12:52:50.317Z,7.88
2022-11-17T12:55:24.632Z,8.45
2022-11-17T12:58:11.451Z,9.40
2022-11-17T13:00:52.896Z,8.85
2022-11-17T13:03:28.247Z,7.78
2022-11-17T13:06:34.540Z,9.10
2022-11-17T13:09:01.649Z,8.35
2022-11-17T13:11:29.353Z,8.82
2022-11-17T13:14:17.103Z,8.23
2022-11-17T13:16:50.299Z,9.00
2022-11-17T13:19:36.705Z,7.53
2022-11-17T13:22:13.859Z,7.90
2022-11-17T13:24:50.454Z,7.53
2022-11-17T13:27:22.306Z,9.13
2022-11-17T13:29:49.560Z,9.25
2022-11-17T13:32:22.067Z,8.75
2022-11-17T13:34:54.160Z,9.15
2022-11-17T13:37:26.656Z,10.18
2022-11-17T13:39:55.170Z,8.68
2022-11-17T13:42:25.175Z,9.35
2022-11-17T13:44:55.175Z,10.98
2022-11-17T13:47:28.383Z,10.85
2022-11-17T13:49:54.903Z,9.70
2022-11-17T13:52:51.651Z,11.05
2022-11-17T13:55:20.561Z,11.40
2022-11-17T13:58:25.892Z,12.23
2022-11-17T14:00:56.515Z,13.10
2022-11-17T14:03:38.112Z,10.60
2022-11-17T14:06:10.561Z,16.10
2022-11-17T14:08:39.372Z,14.07
2022-11-17T14:11:05.898Z,14.15
2022-11-17T14:13:53.896Z,13.43
2022-11-17T14:16:37.449Z,14.05
2022-11-17T14:19:16.474Z,14.57
2022-11-17T14:22:29.233Z,14.13
2022-11-17T14:24:57.728Z,16.30
2022-11-17T14:27:27.058Z,14.00
2022-11-17T14:29:53.559Z,14.20
2022-11-17T14:32:19.996Z,13.55
2022-11-17T14:34:46.512Z,14.00
2022-11-17T14:37:13.065Z,13.80
2022-11-17T14:39:39.589Z,16.38
2022-11-17T14:42:06.091Z,15.55
2022-11-17T14:44:32.570Z,14.18
2022-11-17T14:46:59.046Z,14.60
2022-11-17T14:49:25.538Z,15.38
2022-11-17T14:51:53.153Z,14.35
2022-11-17T14:54:19.610Z,17.63
2022-11-17T14:56:46.160Z,17.75
2022-11-17T14:59:13.467Z,14.85
2022-11-17T15:01:41.084Z,17.88
2022-11-17T15:04:27.630Z,16.90
2022-11-17T15:06:54.179Z,16.88
2022-11-17T15:09:21.124Z,16.90
2022-11-17T15:11:48.231Z,16.83
2022-11-17T15:14:15.041Z,17.23
2022-11-17T15:16:41.787Z,16.30
2022-11-17T15:19:08.242Z,15.10
2022-11-17T15:21:34.964Z,14.88
2022-11-17T15:24:03.999Z,17.23
2022-11-17T15:26:32.339Z,16.67
2022-11-17T15:28:59.103Z,16.42
2022-11-17T15:31:25.674Z,15.25
2022-11-17T15:33:52.200Z,17.90
2022-11-17T15:36:21.623Z,16.73
2022-11-17T15:38:48.400Z,15.52
2022-11-17T15:41:16.020Z,14.45
2022-11-17T15:43:44.527Z,14.77
2022-11-17T15:46:15.836Z,16.90
2022-11-17T15:48:43.859Z,15.52
2022-11-17T15:51:18.006Z,14.95
2022-11-17T15:53:48.832Z,14.65
2022-11-17T15:56:20.619Z,14.65
2022-11-17T15:58:48.586Z,17.67
2022-11-17T16:01:24.731Z,15.25
2022-11-17T16:03:52.779Z,17.52
2022-11-17T16:06:19.286Z,17.35
2022-11-17T16:08:45.739Z,16.45
2022-11-17T16:11:12.284Z,18.25
2022-11-17T16:13:38.903Z,14.82
2022-11-17T16:16:06.299Z,14.23
2022-11-17T16:18:40.419Z,14.90
2022-11-17T16:21:10.468Z,13.95
2022-11-17T16:23:41.620Z,19.05
2022-11-17T16:26:10.525Z,15.47
2022-11-17T16:28:37.677Z,14.43
2022-11-17T16:31:19.404Z,13.57
2022-11-17T16:33:51.132Z,11.52
2022-11-17T16:36:18.594Z,13.60
2022-11-17T16:38:59.964Z,13.43
2022-11-17T16:41:32.451Z,13.43
2022-11-17T16:43:59.541Z,11.35
2022-11-17T16:46:31.505Z,11.98
2022-11-17T16:51:29.149Z,14.32
2022-11-17T16:54:00.631Z,12.27
2022-11-17T16:56:27.927Z,12.70
2022-11-17T16:58:54.879Z,11.70
2022-11-17T17:01:26.917Z,14.25
2022-11-17T17:06:27.423Z,12.05
2022-11-17T17:08:59.445Z,11.15
2022-11-17T17:13:53.925Z,12.80
2022-11-17T17:16:20.819Z,11.63
2022-11-17T17:18:48.152Z,13.60
2022-11-17T17:21:18.125Z,12.27
2022-11-17T17:23:45.675Z,18.45
2022-11-17T17:26:16.618Z,14.93
2022-11-17T17:28:44.891Z,14.43
2022-11-17T17:31:20.768Z,13.70
2022-11-17T17:33:48.423Z,14.90
2022-11-17T17:36:17.633Z,14.05
2022-11-17T17:38:46.813Z,13.25
2022-11-17T17:41:20.079Z,15.20
2022-11-17T17:43:47.586Z,15.32
2022-11-17T17:46:16.717Z,14.98
2022-11-17T17:48:44.979Z,16.05
2022-11-17T17:51:17.119Z,14.80
2022-11-17T17:53:43.916Z,15.52
2022-11-17T17:56:12.959Z,14.43
2022-11-17T17:58:40.624Z,15.88
2022-11-17T18:01:12.488Z,14.85
2022-11-17T18:03:40.010Z,16.05
2022-11-17T18:06:06.964Z,14.27
2022-11-17T18:08:35.575Z,16.20
2022-11-17T18:11:06.030Z,14.63
2022-11-17T18:13:34.079Z,16.02
2022-11-17T18:16:11.345Z,15.48
2022-11-17T18:18:38.704Z,15.68
2022-11-17T18:21:10.085Z,17.42
2022-11-17T18:23:38.130Z,15.60
2022-11-17T18:26:12.253Z,15.35
2022-11-17T18:28:39.495Z,17.45
2022-11-17T18:31:10.319Z,17.55
2022-11-17T18:33:37.274Z,16.60
2022-11-17T18:36:06.084Z,17.52
2022-11-17T18:38:34.351Z,15.73
2022-11-17T18:41:09.306Z,38.67
2022-11-17T18:43:36.118Z,20.15
2022-11-17T18:46:08.312Z,49.80
2022-11-17T18:48:36.729Z,20.88
2022-11-17T18:51:20.681Z,19.60
2022-11-17T18:53:48.840Z,24.85
2022-11-17T18:56:17.727Z,43.72
2022-11-17T18:58:44.621Z,48.08
2022-11-17T19:01:14.019Z,58.72
2022-11-17T19:03:42.357Z,40.42
2022-11-17T19:06:10.417Z,46.78
2022-11-17T19:08:37.458Z,54.97
2022-11-17T19:11:06.581Z,41.45
2022-11-17T19:13:37.257Z,46.15
2022-11-17T19:16:08.539Z,159.32
2022-11-17T19:18:35.687Z,251.13
2022-11-17T19:21:14.212Z,247.90
2022-11-17T19:23:43.482Z,339.90
2022-11-17T19:26:15.169Z,259.25
2022-11-17T19:28:42.319Z,123.75
2022-11-17T19:31:15.378Z,84.53
2022-11-17T19:33:42.279Z,223.10
2022-11-17T19:36:11.525Z,165.95
2022-11-17T19:38:39.280Z,386.33
2022-11-17T19:41:08.152Z,175.80
2022-11-17T19:43:38.980Z,151.70
2022-11-17T19:46:13.842Z,431.77
2022-11-17T19:51:15.187Z,126.78
2022-11-17T19:53:41.871Z,302.02
2022-11-17T19:56:08.752Z,529.80
2022-11-17T19:58:35.292Z,551.10
2022-11-17T20:01:13.191Z,122.57
2022-11-17T20:03:40.629Z,349.55
2022-11-17T20:06:11.345Z,576.85
2022-11-17T20:08:38.153Z,340.95
2022-11-17T20:11:16.736Z,396.73
2022-11-17T20:13:43.686Z,387.95
2022-11-17T20:16:15.669Z,330.33
2022-11-17T20:21:10.542Z,124.50
2022-11-17T20:23:38.584Z,121.85
2022-11-17T20:26:29.993Z,606.83
2022-11-17T20:28:57.790Z,90.30
2022-11-17T20:31:27.029Z,415.55
2022-11-17T20:34:00.208Z,694.72
2022-11-17T20:36:29.071Z,693.00
2022-11-17T20:39:04.063Z,639.30
2022-11-17T20:41:30.813Z,714.75
2022-11-17T20:43:59.609Z,450.77
2022-11-17T20:46:26.887Z,407.50
2022-11-17T20:48:53.631Z,269.52
2022-11-17T20:51:22.204Z,853.85
2022-11-17T20:53:49.501Z,518.38
2022-11-17T20:56:17.750Z,623.75
2022-11-17T20:58:44.952Z,229.75
2022-11-17T21:01:16.628Z,337.02
2022-11-17T21:03:43.739Z,294.33
2022-11-17T21:06:10.675Z,276.33
2022-11-17T21:08:39.108Z,627.25
2022-11-17T21:11:08.683Z,542.10
2022-11-17T21:13:36.887Z,311.75
2022-11-17T21:16:13.441Z,308.67
2022-11-17T21:18:46.957Z,609.13
2022-11-17T21:21:14.358Z,477.38
2022-11-17T21:23:41.553Z,540.30
2022-11-17T21:26:18.525Z,713.17
2022-11-17T21:28:45.691Z,579.75
2022-11-17T21:31:17.760Z,622.80
2022-11-17T21:33:45.024Z,539.78
2022-11-17T21:36:17.101Z,512.15
2022-11-17T21:38:45.219Z,400.77
2022-11-17T21:41:18.508Z,276.33
2022-11-17T21:43:47.448Z,364.00
2022-11-17T21:46:22.742Z,198.95
2022-11-17T21:48:50.423Z,143.25
2022-11-17T21:51:22.397Z,229.05
2022-11-17T21:56:21.117Z,340.10
2022-11-17T21:58:47.632Z,189.25
2022-11-17T22:01:15.989Z,122.75
2022-11-17T22:03:43.282Z,804.85
2022-11-17T22:06:15.348Z,492.70
2022-11-17T22:11:36.049Z,326.80
2022-11-17T22:14:21.733Z,108.07
2022-11-17T22:16:52.972Z,317.98
2022-11-17T22:19:22.124Z,277.70
2022-11-17T22:21:51.590Z,409.67
2022-11-17T22:24:18.231Z,448.58
2022-11-17T22:26:45.218Z,503.90
2022-11-17T22:29:18.385Z,192.15
2022-11-17T22:31:46.281Z,368.95
2022-11-17T22:34:19.072Z,838.95
2022-11-17T22:36:46.152Z,546.90
2022-11-17T22:39:12.716Z,368.17
2022-11-17T22:41:42.640Z,770.67
2022-11-17T22:44:15.719Z,136.90
2022-11-17T22:46:45.781Z,121.13
2022-11-17T22:49:12.896Z,538.67
2022-11-17T22:51:58.224Z,501.63
2022-11-17T22:54:24.700Z,578.00
2022-11-17T22:56:51.212Z,605.92
2022-11-17T22:59:17.969Z,88.38
2022-11-17T23:01:46.609Z,364.17
2022-11-17T23:04:14.044Z,841.78
2022-11-17T23:06:40.523Z,534.58
2022-11-17T23:09:06.998Z,323.83
2022-11-17T23:11:38.147Z,692.40
2022-11-17T23:14:12.713Z,218.20
2022-11-17T23:16:39.996Z,90.22
2022-11-17T23:19:15.775Z,223.25
2022-11-17T23:21:42.881Z,213.07
2022-11-17T23:24:14.413Z,116.25
2022-11-17T23:26:42.006Z,39.72
2022-11-17T23:29:09.382Z,220.13
2022-11-17T23:31:36.154Z,248.00
2022-11-17T23:34:03.652Z,147.70
2022-11-17T23:36:30.266Z,91.45
2022-11-17T23:38:57.755Z,67.72
2022-11-17T23:41:24.341Z,39.85
2022-11-17T23:43:55.676Z,31.42
2022-11-17T23:46:27.015Z,29.20
2022-11-17T23:48:55.170Z,48.47
2022-11-17T23:51:23.783Z,189.25
2022-11-17T23:53:50.649Z,212.07
2022-11-17T23:56:19.464Z,48.42
2022-11-17T23:58:50.470Z,55.10
